createdAt,value
2019-02-18T17:01:18.132Z,9.90
2019-02-18T17:04:08.794Z,10.93
2019-02-18T17:06:59.901Z,10.40
2019-02-18T17:09:50.158Z,11.00
2019-02-18T17:12:40.763Z,10.90
2019-02-18T17:15:30.745Z,12.13
2019-02-18T17:18:20.782Z,19.07
2019-02-18T17:21:11.119Z,14.97
2019-02-18T17:24:01.217Z,11.93
2019-02-18T17:26:51.718Z,12.97
2019-02-18T17:29:42.121Z,14.03
2019-02-18T17:32:32.370Z,14.90
2019-02-18T17:35:22.574Z,13.60
2019-02-18T17:38:12.799Z,13.80
2019-02-18T17:41:03.078Z,14.33
2019-02-18T17:43:53.347Z,14.27
2019-02-18T17:46:43.287Z,14.00
2019-02-18T17:49:33.498Z,14.07
2019-02-18T17:52:23.541Z,15.53
2019-02-18T17:55:14.022Z,17.07
2019-02-18T17:58:05.144Z,14.33
2019-02-18T18:00:56.838Z,16.47
2019-02-18T18:03:47.630Z,17.00
2019-02-18T18:06:37.702Z,14.80
2019-02-18T18:09:28.546Z,15.60
2019-02-18T18:12:18.845Z,15.33
2019-02-18T18:15:10.091Z,15.60
2019-02-18T18:18:00.064Z,16.93
2019-02-18T18:20:50.220Z,15.83
2019-02-18T18:23:40.531Z,15.13
2019-02-18T18:26:30.821Z,14.90
2019-02-18T18:29:21.270Z,16.07
2019-02-18T18:32:12.031Z,16.37
2019-02-18T18:35:02.098Z,19.33
2019-02-18T18:37:52.352Z,17.20
2019-02-18T18:40:43.772Z,16.30
2019-02-18T18:43:34.235Z,16.53
2019-02-18T18:46:24.497Z,15.87
2019-02-18T18:49:14.654Z,15.27
2019-02-18T18:52:04.690Z,14.70
2019-02-18T18:54:54.910Z,15.23
2019-02-18T18:57:45.003Z,15.30
2019-02-18T19:00:35.213Z,15.63
2019-02-18T19:03:26.170Z,16.57
2019-02-18T19:06:16.174Z,16.27
2019-02-18T19:09:07.665Z,17.60
2019-02-18T19:11:57.598Z,15.67
2019-02-18T19:14:48.233Z,17.17
2019-02-18T19:17:38.510Z,16.20
2019-02-18T19:20:29.381Z,14.73
2019-02-18T19:23:19.714Z,16.27
2019-02-18T19:26:09.957Z,16.27
2019-02-18T19:29:00.025Z,18.53
2019-02-18T19:31:50.525Z,17.53
2019-02-18T19:34:40.968Z,18.77
2019-02-18T19:37:31.110Z,17.60
2019-02-18T19:40:21.170Z,17.40
2019-02-18T19:43:11.775Z,17.33
2019-02-18T19:46:01.750Z,19.23
2019-02-18T19:48:52.188Z,19.63
2019-02-18T19:51:42.470Z,21.07
2019-02-18T19:54:32.867Z,23.50
2019-02-18T19:57:23.166Z,21.33
2019-02-18T20:00:15.715Z,21.03
2019-02-18T20:03:06.225Z,21.93
2019-02-18T20:05:56.586Z,21.03
2019-02-18T20:08:47.450Z,19.43
2019-02-18T20:11:37.620Z,19.27
2019-02-18T20:14:27.879Z,21.83
2019-02-18T20:17:17.926Z,24.20
2019-02-18T20:20:09.899Z,24.43
2019-02-18T20:22:59.990Z,23.93
2019-02-18T20:25:50.493Z,22.90
2019-02-18T20:28:40.762Z,20.67
2019-02-18T20:31:30.911Z,21.00
2019-02-18T20:34:21.826Z,18.03
2019-02-18T20:37:12.179Z,17.57
2019-02-18T20:40:02.634Z,16.13
2019-02-18T20:42:53.030Z,14.47
2019-02-18T20:45:43.650Z,13.03
2019-02-18T20:48:33.558Z,12.47
2019-02-18T20:51:23.590Z,11.97
2019-02-18T20:54:13.994Z,11.20
2019-02-18T20:57:04.334Z,10.17
2019-02-18T20:59:54.313Z,9.63
2019-02-18T21:02:44.502Z,9.90
2019-02-18T21:05:35.117Z,10.17
2019-02-18T21:08:25.441Z,9.37
2019-02-18T21:11:15.499Z,9.87
2019-02-18T21:14:05.958Z,9.47
2019-02-18T21:16:57.086Z,9.00
2019-02-18T21:19:47.612Z,9.50
2019-02-18T21:22:37.561Z,9.53
2019-02-18T21:25:27.866Z,9.10
2019-02-18T21:28:18.494Z,8.03
2019-02-18T21:31:09.261Z,8.03
2019-02-18T21:34:00.711Z,8.07
2019-02-18T21:36:51.182Z,7.73
2019-02-18T21:39:41.317Z,7.43
2019-02-18T21:42:31.702Z,7.20
2019-02-18T21:45:21.698Z,6.67
2019-02-18T21:48:12.073Z,7.30
2019-02-18T21:51:02.234Z,6.53
2019-02-18T21:53:52.271Z,6.20
2019-02-18T21:56:42.499Z,6.20
2019-02-18T21:59:33.115Z,6.03
2019-02-18T22:02:23.477Z,6.30
2019-02-18T22:05:14.169Z,5.80
2019-02-18T22:08:04.334Z,4.60
2019-02-18T22:10:54.693Z,5.40
2019-02-18T22:13:44.562Z,4.97
2019-02-18T22:16:34.710Z,4.87
2019-02-18T22:19:25.098Z,4.30
2019-02-18T22:22:15.289Z,4.83
2019-02-18T22:25:06.685Z,4.67
2019-02-18T22:27:56.681Z,4.43
2019-02-18T22:30:47.116Z,4.53
2019-02-18T22:33:37.362Z,4.73
2019-02-18T22:36:27.702Z,4.97
2019-02-18T22:39:19.775Z,4.67
2019-02-18T22:42:09.920Z,4.63
2019-02-18T22:44:59.880Z,4.57
2019-02-18T22:47:50.106Z,4.40
2019-02-18T22:50:40.677Z,4.43
2019-02-18T22:53:30.954Z,4.20
2019-02-18T22:56:21.471Z,4.50
2019-02-18T22:59:11.640Z,5.00
2019-02-18T23:02:01.954Z,5.30
2019-02-18T23:04:51.925Z,5.07
2019-02-18T23:07:42.109Z,5.87
2019-02-18T23:10:32.586Z,5.87
2019-02-18T23:13:23.074Z,5.37
2019-02-18T23:16:13.015Z,5.60
2019-02-18T23:19:03.350Z,6.00
2019-02-18T23:21:53.604Z,6.30
2019-02-18T23:24:44.037Z,6.57
2019-02-18T23:27:34.323Z,6.07
2019-02-18T23:30:24.509Z,6.93
2019-02-18T23:33:15.398Z,7.27
2019-02-18T23:36:05.853Z,6.37
2019-02-18T23:38:56.744Z,6.93
2019-02-18T23:41:47.128Z,6.97
2019-02-18T23:44:37.975Z,6.63
2019-02-18T23:47:28.326Z,6.17
2019-02-18T23:50:18.581Z,6.40
2019-02-18T23:53:08.652Z,5.87
2019-02-18T23:55:58.997Z,6.40
2019-02-18T23:58:49.302Z,6.00
